sensor_id;sensor_type;location;lat;lon;timestamp;P1;durP1;ratioP1;P2;durP2;ratioP2
3427;SDS011;1727;42.624;23.406;2023-04-24T00:01:36;7.90;;;7.10;;
3427;SDS011;1727;42.624;23.406;2023-04-24T00:04:05;9.40;;;7.00;;
3427;SDS011;1727;42.624;23.406;2023-04-24T00:06:36;10.10;;;7.17;;
3427;SDS011;1727;42.624;23.406;2023-04-24T00:09:03;9.90;;;8.03;;
3427;SDS011;1727;42.624;23.406;2023-04-24T00:11:30;12.63;;;7.60;;
3427;SDS011;1727;42.624;23.406;2023-04-24T00:13:57;11.17;;;7.97;;
3427;SDS011;1727;42.624;23.406;2023-04-24T00:16:24;13.77;;;7.50;;
3427;SDS011;1727;42.624;23.406;2023-04-24T00:18:50;11.33;;;8.13;;
3427;SDS011;1727;42.624;23.406;2023-04-24T00:21:19;7.50;;;6.73;;
3427;SDS011;1727;42.624;23.406;2023-04-24T00:23:46;10.43;;;7.53;;
3427;SDS011;1727;42.624;23.406;2023-04-24T00:26:13;12.70;;;7.77;;
3427;SDS011;1727;42.624;23.406;2023-04-24T00:28:40;9.60;;;8.20;;
3427;SDS011;1727;42.624;23.406;2023-04-24T00:37:51;11.23;;;8.47;;
3427;SDS011;1727;42.624;23.406;2023-04-24T00:40:18;14.17;;;9.03;;
3427;SDS011;1727;42.624;23.406;2023-04-24T00:42:44;9.70;;;8.70;;
3427;SDS011;1727;42.624;23.406;2023-04-24T00:45:12;17.90;;;9.27;;
3427;SDS011;1727;42.624;23.406;2023-04-24T00:47:39;7.23;;;6.53;;
3427;SDS011;1727;42.624;23.406;2023-04-24T00:50:08;10.17;;;7.60;;
3427;SDS011;1727;42.624;23.406;2023-04-24T00:52:36;12.33;;;8.13;;
3427;SDS011;1727;42.624;23.406;2023-04-24T00:55:07;12.10;;;7.50;;
3427;SDS011;1727;42.624;23.406;2023-04-24T00:57:35;8.97;;;6.87;;
3427;SDS011;1727;42.624;23.406;2023-04-24T01:00:02;13.63;;;8.30;;
3427;SDS011;1727;42.624;23.406;2023-04-24T01:02:33;10.53;;;7.63;;
3427;SDS011;1727;42.624;23.406;2023-04-24T01:05:00;9.00;;;7.90;;
3427;SDS011;1727;42.624;23.406;2023-04-24T01:07:27;8.97;;;8.07;;
3427;SDS011;1727;42.624;23.406;2023-04-24T01:09:54;11.60;;;7.60;;
3427;SDS011;1727;42.624;23.406;2023-04-24T01:12:22;9.03;;;8.10;;
3427;SDS011;1727;42.624;23.406;2023-04-24T01:14:49;13.87;;;6.53;;
3427;SDS011;1727;42.624;23.406;2023-04-24T01:17:16;7.80;;;7.00;;
3427;SDS011;1727;42.624;23.406;2023-04-24T01:19:43;10.63;;;7.47;;
3427;SDS011;1727;42.624;23.406;2023-04-24T01:22:12;10.47;;;7.10;;
3427;SDS011;1727;42.624;23.406;2023-04-24T01:24:39;11.83;;;7.63;;
3427;SDS011;1727;42.624;23.406;2023-04-24T01:27:07;8.40;;;7.60;;
3427;SDS011;1727;42.624;23.406;2023-04-24T01:29:35;8.17;;;7.33;;
3427;SDS011;1727;42.624;23.406;2023-04-24T01:32:02;10.63;;;7.20;;
3427;SDS011;1727;42.624;23.406;2023-04-24T01:34:29;9.37;;;7.30;;
3427;SDS011;1727;42.624;23.406;2023-04-24T01:36:56;9.53;;;7.53;;
3427;SDS011;1727;42.624;23.406;2023-04-24T01:39:25;12.73;;;8.43;;
3427;SDS011;1727;42.624;23.406;2023-04-24T01:41:53;17.23;;;9.50;;
3427;SDS011;1727;42.624;23.406;2023-04-24T01:44:20;8.57;;;7.67;;
3427;SDS011;1727;42.624;23.406;2023-04-24T01:46:47;14.77;;;8.63;;
3427;SDS011;1727;42.624;23.406;2023-04-24T01:49:14;9.63;;;8.63;;
3427;SDS011;1727;42.624;23.406;2023-04-24T01:51:41;9.87;;;7.83;;
3427;SDS011;1727;42.624;23.406;2023-04-24T01:54:08;9.60;;;8.60;;
3427;SDS011;1727;42.624;23.406;2023-04-24T01:56:37;9.90;;;7.93;;
3427;SDS011;1727;42.624;23.406;2023-04-24T01:59:08;14.80;;;9.73;;
3427;SDS011;1727;42.624;23.406;2023-04-24T02:01:36;11.87;;;10.20;;
3427;SDS011;1727;42.624;23.406;2023-04-24T02:04:06;11.40;;;9.03;;
3427;SDS011;1727;42.624;23.406;2023-04-24T02:12:45;9.70;;;8.00;;
3427;SDS011;1727;42.624;23.406;2023-04-24T02:15:11;16.33;;;8.37;;
3427;SDS011;1727;42.624;23.406;2023-04-24T02:17:38;8.47;;;7.23;;
3427;SDS011;1727;42.624;23.406;2023-04-24T02:20:05;9.47;;;8.37;;
3427;SDS011;1727;42.624;23.406;2023-04-24T02:22:33;8.27;;;7.47;;
3427;SDS011;1727;42.624;23.406;2023-04-24T02:25:00;17.47;;;7.47;;
3427;SDS011;1727;42.624;23.406;2023-04-24T02:27:27;8.27;;;7.43;;
3427;SDS011;1727;42.624;23.406;2023-04-24T02:39:59;11.80;;;8.53;;
3427;SDS011;1727;42.624;23.406;2023-04-24T02:42:28;15.27;;;8.33;;
3427;SDS011;1727;42.624;23.406;2023-04-24T02:44:57;9.23;;;8.23;;
3427;SDS011;1727;42.624;23.406;2023-04-24T02:47:24;10.83;;;8.90;;
3427;SDS011;1727;42.624;23.406;2023-04-24T02:49:51;11.00;;;9.23;;
3427;SDS011;1727;42.624;23.406;2023-04-24T02:52:20;10.67;;;9.10;;
3427;SDS011;1727;42.624;23.406;2023-04-24T02:54:47;12.63;;;9.93;;
3427;SDS011;1727;42.624;23.406;2023-04-24T02:57:15;13.87;;;9.83;;
3427;SDS011;1727;42.624;23.406;2023-04-24T02:59:42;16.40;;;10.00;;
3427;SDS011;1727;42.624;23.406;2023-04-24T03:02:08;17.30;;;10.20;;
3427;SDS011;1727;42.624;23.406;2023-04-24T03:04:35;13.30;;;11.20;;
3427;SDS011;1727;42.624;23.406;2023-04-24T03:07:02;18.93;;;10.30;;
3427;SDS011;1727;42.624;23.406;2023-04-24T03:09:29;13.30;;;12.00;;
3427;SDS011;1727;42.624;23.406;2023-04-24T03:11:56;17.30;;;11.50;;
3427;SDS011;1727;42.624;23.406;2023-04-24T03:14:24;17.03;;;11.20;;
3427;SDS011;1727;42.624;23.406;2023-04-24T03:20:13;17.87;;;12.47;;
3427;SDS011;1727;42.624;23.406;2023-04-24T03:22:40;21.77;;;12.57;;
3427;SDS011;1727;42.624;23.406;2023-04-24T03:25:07;20.10;;;11.23;;
3427;SDS011;1727;42.624;23.406;2023-04-24T03:27:34;17.97;;;12.20;;
3427;SDS011;1727;42.624;23.406;2023-04-24T03:30:02;22.43;;;12.27;;
3427;SDS011;1727;42.624;23.406;2023-04-24T03:32:29;18.93;;;12.63;;
3427;SDS011;1727;42.624;23.406;2023-04-24T03:34:57;16.10;;;12.43;;
3427;SDS011;1727;42.624;23.406;2023-04-24T03:37:24;17.13;;;13.00;;
3427;SDS011;1727;42.624;23.406;2023-04-24T03:39:51;16.33;;;12.07;;
3427;SDS011;1727;42.624;23.406;2023-04-24T03:42:18;19.60;;;13.20;;
3427;SDS011;1727;42.624;23.406;2023-04-24T03:44:45;19.53;;;12.70;;
3427;SDS011;1727;42.624;23.406;2023-04-24T03:47:13;13.27;;;11.47;;
3427;SDS011;1727;42.624;23.406;2023-04-24T03:49:40;13.00;;;11.20;;
3427;SDS011;1727;42.624;23.406;2023-04-24T03:52:06;14.43;;;11.27;;
3427;SDS011;1727;42.624;23.406;2023-04-24T03:54:33;13.37;;;11.23;;
3427;SDS011;1727;42.624;23.406;2023-04-24T03:57:00;21.57;;;11.80;;
3427;SDS011;1727;42.624;23.406;2023-04-24T04:06:13;9.10;;;7.00;;
3427;SDS011;1727;42.624;23.406;2023-04-24T04:08:39;15.43;;;9.60;;
3427;SDS011;1727;42.624;23.406;2023-04-24T04:11:06;16.50;;;10.30;;
3427;SDS011;1727;42.624;23.406;2023-04-24T04:13:33;15.73;;;9.00;;
3427;SDS011;1727;42.624;23.406;2023-04-24T04:16:03;10.50;;;9.40;;
3427;SDS011;1727;42.624;23.406;2023-04-24T04:18:30;9.90;;;9.00;;
3427;SDS011;1727;42.624;23.406;2023-04-24T04:20:57;9.83;;;8.87;;
3427;SDS011;1727;42.624;23.406;2023-04-24T04:23:27;12.90;;;10.00;;
3427;SDS011;1727;42.624;23.406;2023-04-24T04:25:54;10.40;;;9.40;;
3427;SDS011;1727;42.624;23.406;2023-04-24T04:28:21;12.67;;;10.17;;
3427;SDS011;1727;42.624;23.406;2023-04-24T04:30:49;17.80;;;10.50;;
3427;SDS011;1727;42.624;23.406;2023-04-24T04:33:18;15.90;;;11.20;;
3427;SDS011;1727;42.624;23.406;2023-04-24T04:35:45;14.17;;;10.20;;
3427;SDS011;1727;42.624;23.406;2023-04-24T04:38:14;11.67;;;9.27;;
3427;SDS011;1727;42.624;23.406;2023-04-24T04:40:43;14.50;;;9.80;;
3427;SDS011;1727;42.624;23.406;2023-04-24T04:43:10;12.83;;;11.57;;
3427;SDS011;1727;42.624;23.406;2023-04-24T04:45:38;13.77;;;10.07;;
3427;SDS011;1727;42.624;23.406;2023-04-24T04:48:07;14.63;;;11.03;;
3427;SDS011;1727;42.624;23.406;2023-04-24T04:50:37;11.40;;;10.20;;
3427;SDS011;1727;42.624;23.406;2023-04-24T04:53:04;14.13;;;10.80;;
3427;SDS011;1727;42.624;23.406;2023-04-24T04:55:32;21.43;;;10.50;;
3427;SDS011;1727;42.624;23.406;2023-04-24T04:58:00;17.63;;;9.90;;
3427;SDS011;1727;42.624;23.406;2023-04-24T05:00:27;14.57;;;9.33;;
3427;SDS011;1727;42.624;23.406;2023-04-24T05:02:54;13.40;;;10.50;;
3427;SDS011;1727;42.624;23.406;2023-04-24T05:05:21;18.00;;;11.20;;
3427;SDS011;1727;42.624;23.406;2023-04-24T05:07:47;17.73;;;10.00;;
3427;SDS011;1727;42.624;23.406;2023-04-24T05:10:14;20.00;;;10.73;;
3427;SDS011;1727;42.624;23.406;2023-04-24T05:12:41;10.93;;;9.57;;
3427;SDS011;1727;42.624;23.406;2023-04-24T05:15:10;22.03;;;10.70;;
3427;SDS011;1727;42.624;23.406;2023-04-24T05:17:37;28.53;;;12.27;;
3427;SDS011;1727;42.624;23.406;2023-04-24T05:20:07;21.77;;;11.07;;
3427;SDS011;1727;42.624;23.406;2023-04-24T05:22:34;17.03;;;13.30;;
3427;SDS011;1727;42.624;23.406;2023-04-24T05:25:01;17.57;;;10.63;;
3427;SDS011;1727;42.624;23.406;2023-04-24T05:27:28;16.97;;;12.07;;
3427;SDS011;1727;42.624;23.406;2023-04-24T05:29:55;21.43;;;11.53;;
3427;SDS011;1727;42.624;23.406;2023-04-24T05:32:23;12.90;;;11.47;;
3427;SDS011;1727;42.624;23.406;2023-04-24T05:34:52;13.57;;;11.20;;
3427;SDS011;1727;42.624;23.406;2023-04-24T05:37:19;16.23;;;11.20;;
3427;SDS011;1727;42.624;23.406;2023-04-24T05:39:46;12.97;;;10.87;;
3427;SDS011;1727;42.624;23.406;2023-04-24T05:42:12;14.70;;;11.47;;
3427;SDS011;1727;42.624;23.406;2023-04-24T05:44:39;16.50;;;12.00;;
3427;SDS011;1727;42.624;23.406;2023-04-24T05:47:06;22.03;;;12.53;;
3427;SDS011;1727;42.624;23.406;2023-04-24T05:49:34;15.53;;;12.33;;
3427;SDS011;1727;42.624;23.406;2023-04-24T05:52:01;15.90;;;12.20;;
3427;SDS011;1727;42.624;23.406;2023-04-24T05:54:29;11.87;;;10.17;;
3427;SDS011;1727;42.624;23.406;2023-04-24T05:56:56;16.73;;;11.03;;
3427;SDS011;1727;42.624;23.406;2023-04-24T05:59:23;19.27;;;11.47;;
3427;SDS011;1727;42.624;23.406;2023-04-24T06:01:50;11.23;;;8.90;;
3427;SDS011;1727;42.624;23.406;2023-04-24T06:04:17;12.13;;;9.70;;
3427;SDS011;1727;42.624;23.406;2023-04-24T06:06:45;11.53;;;9.13;;
3427;SDS011;1727;42.624;23.406;2023-04-24T06:09:18;13.10;;;9.63;;
3427;SDS011;1727;42.624;23.406;2023-04-24T06:11:45;13.33;;;10.40;;
3427;SDS011;1727;42.624;23.406;2023-04-24T06:14:12;14.60;;;10.23;;
3427;SDS011;1727;42.624;23.406;2023-04-24T06:16:40;16.00;;;10.67;;
3427;SDS011;1727;42.624;23.406;2023-04-24T06:19:08;15.27;;;10.80;;
3427;SDS011;1727;42.624;23.406;2023-04-24T06:21:35;20.93;;;10.13;;
3427;SDS011;1727;42.624;23.406;2023-04-24T06:24:03;13.17;;;9.57;;
3427;SDS011;1727;42.624;23.406;2023-04-24T06:26:29;11.50;;;9.57;;
3427;SDS011;1727;42.624;23.406;2023-04-24T06:28:56;15.27;;;9.40;;
3427;SDS011;1727;42.624;23.406;2023-04-24T06:31:25;9.97;;;9.00;;
3427;SDS011;1727;42.624;23.406;2023-04-24T06:33:54;8.93;;;8.13;;
3427;SDS011;1727;42.624;23.406;2023-04-24T06:36:21;10.73;;;9.60;;
3427;SDS011;1727;42.624;23.406;2023-04-24T06:38:48;10.93;;;9.30;;
3427;SDS011;1727;42.624;23.406;2023-04-24T06:41:16;13.50;;;9.70;;
3427;SDS011;1727;42.624;23.406;2023-04-24T06:43:43;12.80;;;10.67;;
3427;SDS011;1727;42.624;23.406;2023-04-24T06:46:10;20.10;;;12.00;;
3427;SDS011;1727;42.624;23.406;2023-04-24T06:48:37;17.63;;;12.37;;
3427;SDS011;1727;42.624;23.406;2023-04-24T06:51:04;17.83;;;11.03;;
3427;SDS011;1727;42.624;23.406;2023-04-24T06:53:31;13.90;;;9.87;;
3427;SDS011;1727;42.624;23.406;2023-04-24T06:55:58;13.13;;;10.00;;
3427;SDS011;1727;42.624;23.406;2023-04-24T06:58:26;17.70;;;11.13;;
3427;SDS011;1727;42.624;23.406;2023-04-24T07:00:53;17.40;;;9.80;;
3427;SDS011;1727;42.624;23.406;2023-04-24T07:03:20;10.43;;;9.43;;
3427;SDS011;1727;42.624;23.406;2023-04-24T07:05:47;18.13;;;10.60;;
3427;SDS011;1727;42.624;23.406;2023-04-24T07:08:15;17.57;;;10.27;;
3427;SDS011;1727;42.624;23.406;2023-04-24T07:10:43;14.43;;;9.37;;
3427;SDS011;1727;42.624;23.406;2023-04-24T07:13:10;12.73;;;9.80;;
3427;SDS011;1727;42.624;23.406;2023-04-24T07:15:39;10.60;;;8.40;;
3427;SDS011;1727;42.624;23.406;2023-04-24T07:18:06;13.60;;;10.40;;
3427;SDS011;1727;42.624;23.406;2023-04-24T07:20:33;21.50;;;10.23;;
3427;SDS011;1727;42.624;23.406;2023-04-24T07:23:00;17.30;;;9.07;;
3427;SDS011;1727;42.624;23.406;2023-04-24T07:25:27;10.27;;;9.20;;
3427;SDS011;1727;42.624;23.406;2023-04-24T07:27:54;14.40;;;9.13;;
3427;SDS011;1727;42.624;23.406;2023-04-24T07:30:21;11.43;;;10.30;;
3427;SDS011;1727;42.624;23.406;2023-04-24T07:32:49;13.10;;;9.80;;
3427;SDS011;1727;42.624;23.406;2023-04-24T07:35:16;21.37;;;10.73;;
3427;SDS011;1727;42.624;23.406;2023-04-24T07:37:43;11.87;;;9.50;;
3427;SDS011;1727;42.624;23.406;2023-04-24T07:40:11;21.73;;;9.70;;
3427;SDS011;1727;42.624;23.406;2023-04-24T07:42:38;13.20;;;9.57;;
3427;SDS011;1727;42.624;23.406;2023-04-24T07:45:05;11.50;;;10.30;;
3427;SDS011;1727;42.624;23.406;2023-04-24T07:47:33;16.20;;;9.13;;
3427;SDS011;1727;42.624;23.406;2023-04-24T07:50:03;13.03;;;9.20;;
3427;SDS011;1727;42.624;23.406;2023-04-24T07:52:30;15.03;;;9.37;;
3427;SDS011;1727;42.624;23.406;2023-04-24T07:54:57;13.70;;;8.57;;
3427;SDS011;1727;42.624;23.406;2023-04-24T07:57:25;16.43;;;9.40;;
3427;SDS011;1727;42.624;23.406;2023-04-24T08:06:36;9.27;;;7.50;;
3427;SDS011;1727;42.624;23.406;2023-04-24T08:09:03;8.97;;;8.07;;
3427;SDS011;1727;42.624;23.406;2023-04-24T08:11:30;12.23;;;7.70;;
3427;SDS011;1727;42.624;23.406;2023-04-24T08:13:57;7.97;;;7.13;;
3427;SDS011;1727;42.624;23.406;2023-04-24T08:16:24;18.53;;;8.83;;
3427;SDS011;1727;42.624;23.406;2023-04-24T08:18:51;9.80;;;8.10;;
3427;SDS011;1727;42.624;23.406;2023-04-24T08:21:19;11.63;;;9.03;;
3427;SDS011;1727;42.624;23.406;2023-04-24T08:23:48;13.53;;;8.33;;
3427;SDS011;1727;42.624;23.406;2023-04-24T08:26:14;8.33;;;7.63;;
3427;SDS011;1727;42.624;23.406;2023-04-24T08:28:41;9.80;;;8.57;;
3427;SDS011;1727;42.624;23.406;2023-04-24T08:31:08;7.90;;;6.90;;
3427;SDS011;1727;42.624;23.406;2023-04-24T08:33:35;12.13;;;7.50;;
3427;SDS011;1727;42.624;23.406;2023-04-24T08:36:02;10.27;;;7.53;;
3427;SDS011;1727;42.624;23.406;2023-04-24T08:38:30;12.17;;;8.80;;
3427;SDS011;1727;42.624;23.406;2023-04-24T08:40:58;9.53;;;7.37;;
3427;SDS011;1727;42.624;23.406;2023-04-24T08:43:26;7.80;;;7.10;;
3427;SDS011;1727;42.624;23.406;2023-04-24T08:45:55;8.33;;;7.53;;
3427;SDS011;1727;42.624;23.406;2023-04-24T08:48:22;6.70;;;6.03;;
3427;SDS011;1727;42.624;23.406;2023-04-24T08:50:50;12.43;;;6.87;;
3427;SDS011;1727;42.624;23.406;2023-04-24T08:53:17;10.80;;;7.70;;
3427;SDS011;1727;42.624;23.406;2023-04-24T08:55:46;11.53;;;6.60;;
3427;SDS011;1727;42.624;23.406;2023-04-24T08:58:16;6.70;;;5.97;;
3427;SDS011;1727;42.624;23.406;2023-04-24T09:00:43;7.80;;;7.17;;
3427;SDS011;1727;42.624;23.406;2023-04-24T09:03:13;13.60;;;7.57;;
3427;SDS011;1727;42.624;23.406;2023-04-24T09:05:41;9.87;;;7.13;;
3427;SDS011;1727;42.624;23.406;2023-04-24T09:08:10;8.10;;;6.90;;
3427;SDS011;1727;42.624;23.406;2023-04-24T09:10:40;8.50;;;6.80;;
3427;SDS011;1727;42.624;23.406;2023-04-24T09:13:07;10.30;;;7.53;;
3427;SDS011;1727;42.624;23.406;2023-04-24T09:15:36;11.20;;;7.43;;
3427;SDS011;1727;42.624;23.406;2023-04-24T09:18:05;7.80;;;7.00;;
3427;SDS011;1727;42.624;23.406;2023-04-24T09:20:32;7.40;;;6.80;;
3427;SDS011;1727;42.624;23.406;2023-04-24T09:23:01;8.00;;;7.20;;
3427;SDS011;1727;42.624;23.406;2023-04-24T09:25:30;7.53;;;6.83;;
3427;SDS011;1727;42.624;23.406;2023-04-24T09:28:00;9.20;;;5.63;;
3427;SDS011;1727;42.624;23.406;2023-04-24T09:30:27;11.80;;;6.63;;
3427;SDS011;1727;42.624;23.406;2023-04-24T09:35:49;7.67;;;6.43;;
3427;SDS011;1727;42.624;23.406;2023-04-24T09:38:17;17.67;;;6.50;;
3427;SDS011;1727;42.624;23.406;2023-04-24T09:40:43;6.47;;;5.87;;
3427;SDS011;1727;42.624;23.406;2023-04-24T09:43:10;9.53;;;7.20;;
3427;SDS011;1727;42.624;23.406;2023-04-24T09:45:38;12.53;;;7.07;;
3427;SDS011;1727;42.624;23.406;2023-04-24T09:48:07;10.57;;;5.80;;
3427;SDS011;1727;42.624;23.406;2023-04-24T09:50:36;6.67;;;6.07;;
3427;SDS011;1727;42.624;23.406;2023-04-24T09:53:04;8.77;;;5.97;;
3427;SDS011;1727;42.624;23.406;2023-04-24T09:55:33;6.40;;;5.90;;
3427;SDS011;1727;42.624;23.406;2023-04-24T09:58:07;6.57;;;5.80;;
3427;SDS011;1727;42.624;23.406;2023-04-24T10:00:34;12.50;;;6.57;;
3427;SDS011;1727;42.624;23.406;2023-04-24T10:03:02;11.70;;;7.27;;
3427;SDS011;1727;42.624;23.406;2023-04-24T10:05:32;7.53;;;6.80;;
3427;SDS011;1727;42.624;23.406;2023-04-24T10:08:00;7.47;;;6.77;;
3427;SDS011;1727;42.624;23.406;2023-04-24T10:10:30;9.00;;;7.03;;
3427;SDS011;1727;42.624;23.406;2023-04-24T10:12:58;8.90;;;7.07;;
3427;SDS011;1727;42.624;23.406;2023-04-24T10:15:26;6.67;;;5.97;;
3427;SDS011;1727;42.624;23.406;2023-04-24T10:17:53;7.60;;;6.50;;
3427;SDS011;1727;42.624;23.406;2023-04-24T10:20:21;6.90;;;5.70;;
3427;SDS011;1727;42.624;23.406;2023-04-24T10:22:49;7.73;;;6.57;;
3427;SDS011;1727;42.624;23.406;2023-04-24T10:25:18;9.33;;;5.63;;
3427;SDS011;1727;42.624;23.406;2023-04-24T10:27:47;8.50;;;6.10;;
3427;SDS011;1727;42.624;23.406;2023-04-24T10:30:15;7.63;;;5.60;;
3427;SDS011;1727;42.624;23.406;2023-04-24T10:32:43;10.17;;;5.63;;
3427;SDS011;1727;42.624;23.406;2023-04-24T10:35:11;6.80;;;5.87;;
3427;SDS011;1727;42.624;23.406;2023-04-24T10:37:40;12.43;;;6.27;;
3427;SDS011;1727;42.624;23.406;2023-04-24T10:40:09;7.20;;;6.20;;
3427;SDS011;1727;42.624;23.406;2023-04-24T10:42:39;6.30;;;5.70;;
3427;SDS011;1727;42.624;23.406;2023-04-24T10:45:08;6.13;;;5.63;;
3427;SDS011;1727;42.624;23.406;2023-04-24T10:47:50;6.33;;;5.73;;
3427;SDS011;1727;42.624;23.406;2023-04-24T10:50:18;7.90;;;5.60;;
3427;SDS011;1727;42.624;23.406;2023-04-24T10:52:45;7.20;;;6.57;;
3427;SDS011;1727;42.624;23.406;2023-04-24T10:55:12;6.50;;;5.80;;
3427;SDS011;1727;42.624;23.406;2023-04-24T10:57:40;12.43;;;7.33;;
3427;SDS011;1727;42.624;23.406;2023-04-24T11:00:29;7.03;;;5.60;;
3427;SDS011;1727;42.624;23.406;2023-04-24T11:02:56;6.60;;;6.00;;
3427;SDS011;1727;42.624;23.406;2023-04-24T11:05:41;5.90;;;5.50;;
3427;SDS011;1727;42.624;23.406;2023-04-24T11:08:21;7.07;;;6.10;;
3427;SDS011;1727;42.624;23.406;2023-04-24T11:10:54;6.17;;;5.53;;
3427;SDS011;1727;42.624;23.406;2023-04-24T11:13:23;6.90;;;5.57;;
3427;SDS011;1727;42.624;23.406;2023-04-24T11:18:41;6.03;;;5.20;;
3427;SDS011;1727;42.624;23.406;2023-04-24T11:21:11;6.03;;;5.40;;
3427;SDS011;1727;42.624;23.406;2023-04-24T11:23:38;7.23;;;6.10;;
3427;SDS011;1727;42.624;23.406;2023-04-24T11:26:12;5.77;;;5.27;;
3427;SDS011;1727;42.624;23.406;2023-04-24T11:28:46;6.40;;;5.80;;
3427;SDS011;1727;42.624;23.406;2023-04-24T11:34:09;8.80;;;5.90;;
3427;SDS011;1727;42.624;23.406;2023-04-24T11:36:37;8.30;;;6.73;;
3427;SDS011;1727;42.624;23.406;2023-04-24T11:39:05;19.67;;;6.90;;
3427;SDS011;1727;42.624;23.406;2023-04-24T11:41:33;8.30;;;5.60;;
3427;SDS011;1727;42.624;23.406;2023-04-24T11:44:01;12.40;;;4.70;;
3427;SDS011;1727;42.624;23.406;2023-04-24T11:46:29;5.00;;;4.60;;
3427;SDS011;1727;42.624;23.406;2023-04-24T11:48:58;6.17;;;5.67;;
3427;SDS011;1727;42.624;23.406;2023-04-24T11:51:26;7.37;;;5.13;;
3427;SDS011;1727;42.624;23.406;2023-04-24T11:53:53;5.90;;;5.30;;
3427;SDS011;1727;42.624;23.406;2023-04-24T11:56:21;8.30;;;6.40;;
3427;SDS011;1727;42.624;23.406;2023-04-24T11:58:48;5.47;;;5.07;;
3427;SDS011;1727;42.624;23.406;2023-04-24T12:01:14;6.20;;;5.60;;
3427;SDS011;1727;42.624;23.406;2023-04-24T12:03:41;5.30;;;4.80;;
3427;SDS011;1727;42.624;23.406;2023-04-24T12:06:14;5.20;;;4.90;;
3427;SDS011;1727;42.624;23.406;2023-04-24T12:08:41;7.97;;;5.37;;
3427;SDS011;1727;42.624;23.406;2023-04-24T12:11:08;17.63;;;6.40;;
3427;SDS011;1727;42.624;23.406;2023-04-24T12:13:34;15.30;;;5.10;;
3427;SDS011;1727;42.624;23.406;2023-04-24T12:16:02;7.13;;;6.00;;
3427;SDS011;1727;42.624;23.406;2023-04-24T12:18:30;10.03;;;5.70;;
3427;SDS011;1727;42.624;23.406;2023-04-24T12:23:44;6.23;;;5.60;;
3427;SDS011;1727;42.624;23.406;2023-04-24T12:26:11;14.40;;;7.80;;
3427;SDS011;1727;42.624;23.406;2023-04-24T12:28:38;10.10;;;6.53;;
3427;SDS011;1727;42.624;23.406;2023-04-24T12:31:06;9.00;;;6.83;;
3427;SDS011;1727;42.624;23.406;2023-04-24T12:33:34;7.17;;;5.53;;
3427;SDS011;1727;42.624;23.406;2023-04-24T12:36:01;6.67;;;6.07;;
3427;SDS011;1727;42.624;23.406;2023-04-24T12:38:30;9.40;;;6.00;;
3427;SDS011;1727;42.624;23.406;2023-04-24T12:41:05;7.70;;;6.00;;
3427;SDS011;1727;42.624;23.406;2023-04-24T12:43:33;6.50;;;5.77;;
3427;SDS011;1727;42.624;23.406;2023-04-24T12:46:00;6.57;;;5.97;;
3427;SDS011;1727;42.624;23.406;2023-04-24T12:48:28;6.50;;;5.90;;
3427;SDS011;1727;42.624;23.406;2023-04-24T12:50:56;8.07;;;5.97;;
3427;SDS011;1727;42.624;23.406;2023-04-24T12:53:26;6.43;;;5.93;;
3427;SDS011;1727;42.624;23.406;2023-04-24T12:55:55;6.17;;;5.67;;
3427;SDS011;1727;42.624;23.406;2023-04-24T12:58:22;6.63;;;5.93;;
3427;SDS011;1727;42.624;23.406;2023-04-24T13:00:49;9.43;;;7.57;;
3427;SDS011;1727;42.624;23.406;2023-04-24T13:03:16;8.87;;;6.63;;
3427;SDS011;1727;42.624;23.406;2023-04-24T13:05:44;8.20;;;6.40;;
3427;SDS011;1727;42.624;23.406;2023-04-24T13:08:11;9.20;;;6.53;;
3427;SDS011;1727;42.624;23.406;2023-04-24T13:10:39;9.40;;;7.50;;
3427;SDS011;1727;42.624;23.406;2023-04-24T13:13:08;6.93;;;6.33;;
3427;SDS011;1727;42.624;23.406;2023-04-24T13:15:35;6.90;;;6.30;;
3427;SDS011;1727;42.624;23.406;2023-04-24T13:18:02;6.30;;;5.80;;
3427;SDS011;1727;42.624;23.406;2023-04-24T13:20:29;8.60;;;7.80;;
3427;SDS011;1727;42.624;23.406;2023-04-24T13:22:55;7.27;;;6.50;;
3427;SDS011;1727;42.624;23.406;2023-04-24T13:25:22;8.27;;;6.13;;
3427;SDS011;1727;42.624;23.406;2023-04-24T13:27:50;7.63;;;6.10;;
3427;SDS011;1727;42.624;23.406;2023-04-24T13:30:18;8.27;;;6.93;;
3427;SDS011;1727;42.624;23.406;2023-04-24T13:32:45;6.83;;;6.20;;
3427;SDS011;1727;42.624;23.406;2023-04-24T13:35:12;8.10;;;6.83;;
3427;SDS011;1727;42.624;23.406;2023-04-24T13:37:39;7.60;;;6.90;;
3427;SDS011;1727;42.624;23.406;2023-04-24T13:40:06;6.13;;;5.60;;
3427;SDS011;1727;42.624;23.406;2023-04-24T13:42:33;9.07;;;8.27;;
3427;SDS011;1727;42.624;23.406;2023-04-24T13:45:00;8.80;;;7.40;;
3427;SDS011;1727;42.624;23.406;2023-04-24T13:47:30;11.27;;;8.50;;
3427;SDS011;1727;42.624;23.406;2023-04-24T13:49:56;8.10;;;7.40;;
3427;SDS011;1727;42.624;23.406;2023-04-24T13:52:23;6.43;;;5.80;;
3427;SDS011;1727;42.624;23.406;2023-04-24T13:54:50;8.23;;;6.43;;
3427;SDS011;1727;42.624;23.406;2023-04-24T13:57:17;12.83;;;7.10;;
3427;SDS011;1727;42.624;23.406;2023-04-24T13:59:43;7.97;;;7.17;;
3427;SDS011;1727;42.624;23.406;2023-04-24T14:02:11;9.30;;;7.10;;
3427;SDS011;1727;42.624;23.406;2023-04-24T14:04:39;6.03;;;5.57;;
3427;SDS011;1727;42.624;23.406;2023-04-24T14:07:06;6.03;;;5.53;;
3427;SDS011;1727;42.624;23.406;2023-04-24T14:09:33;15.93;;;6.77;;
3427;SDS011;1727;42.624;23.406;2023-04-24T14:12:00;10.17;;;6.70;;
3427;SDS011;1727;42.624;23.406;2023-04-24T14:14:28;11.40;;;7.23;;
3427;SDS011;1727;42.624;23.406;2023-04-24T14:16:56;10.03;;;8.17;;
3427;SDS011;1727;42.624;23.406;2023-04-24T14:19:23;11.50;;;4.90;;
3427;SDS011;1727;42.624;23.406;2023-04-24T14:21:51;8.00;;;4.90;;
3427;SDS011;1727;42.624;23.406;2023-04-24T14:24:18;5.37;;;4.87;;
3427;SDS011;1727;42.624;23.406;2023-04-24T14:26:45;6.67;;;5.77;;
3427;SDS011;1727;42.624;23.406;2023-04-24T14:29:12;6.53;;;5.70;;
3427;SDS011;1727;42.624;23.406;2023-04-24T14:31:39;7.17;;;5.07;;
3427;SDS011;1727;42.624;23.406;2023-04-24T14:34:06;9.30;;;5.83;;
3427;SDS011;1727;42.624;23.406;2023-04-24T14:36:32;5.80;;;5.30;;
3427;SDS011;1727;42.624;23.406;2023-04-24T14:39:01;5.53;;;5.03;;
3427;SDS011;1727;42.624;23.406;2023-04-24T14:41:31;7.10;;;6.40;;
3427;SDS011;1727;42.624;23.406;2023-04-24T14:44:00;5.90;;;4.70;;
3427;SDS011;1727;42.624;23.406;2023-04-24T14:46:27;5.70;;;5.10;;
3427;SDS011;1727;42.624;23.406;2023-04-24T14:48:55;6.80;;;6.07;;
3427;SDS011;1727;42.624;23.406;2023-04-24T14:51:22;6.40;;;5.60;;
3427;SDS011;1727;42.624;23.406;2023-04-24T14:53:50;6.57;;;6.03;;
3427;SDS011;1727;42.624;23.406;2023-04-24T14:56:18;6.00;;;5.40;;
3427;SDS011;1727;42.624;23.406;2023-04-24T14:58:45;6.53;;;5.70;;
3427;SDS011;1727;42.624;23.406;2023-04-24T15:01:12;10.63;;;6.20;;
3427;SDS011;1727;42.624;23.406;2023-04-24T15:03:39;7.73;;;7.13;;
3427;SDS011;1727;42.624;23.406;2023-04-24T15:06:05;6.80;;;6.23;;
3427;SDS011;1727;42.624;23.406;2023-04-24T15:08:32;6.00;;;5.43;;
3427;SDS011;1727;42.624;23.406;2023-04-24T15:10:59;5.73;;;5.20;;
3427;SDS011;1727;42.624;23.406;2023-04-24T15:13:27;8.90;;;7.40;;
3427;SDS011;1727;42.624;23.406;2023-04-24T15:15:54;8.53;;;6.30;;
3427;SDS011;1727;42.624;23.406;2023-04-24T15:18:21;7.10;;;6.50;;
3427;SDS011;1727;42.624;23.406;2023-04-24T15:20:48;10.40;;;7.20;;
3427;SDS011;1727;42.624;23.406;2023-04-24T15:23:14;6.77;;;6.00;;
3427;SDS011;1727;42.624;23.406;2023-04-24T15:25:41;12.63;;;7.17;;
3427;SDS011;1727;42.624;23.406;2023-04-24T15:28:09;7.37;;;6.77;;
3427;SDS011;1727;42.624;23.406;2023-04-24T15:30:37;13.33;;;7.03;;
3427;SDS011;1727;42.624;23.406;2023-04-24T15:33:04;8.50;;;7.70;;
3427;SDS011;1727;42.624;23.406;2023-04-24T15:35:31;12.93;;;7.10;;
3427;SDS011;1727;42.624;23.406;2023-04-24T15:37:58;8.17;;;7.43;;
3427;SDS011;1727;42.624;23.406;2023-04-24T15:40:25;9.00;;;7.37;;
3427;SDS011;1727;42.624;23.406;2023-04-24T15:42:52;8.93;;;7.23;;
3427;SDS011;1727;42.624;23.406;2023-04-24T15:45:18;8.33;;;7.40;;